Time;durP1;ratioP1;P1;durP2;ratioP2;P2;SDS_P1;SDS_P2;PMS_P1;PMS_P2;Temp;Humidity;BMP_temperature;BMP_pressure;BME280_temperature;BME280_humidity;BME280_pressure;Samples;Min_cycle;Max_cycle;Signal;HPM_P1;HPM_P2
2021/07/16 00:04:15;;;;;;;5.38;3.13;;;;;;;17.58;84.01;99841.31;2228422;40;20048;-87
2021/07/16 00:05:49;;;;;;;6.65;3.70;;;;;;;17.58;84.18;99841.31;2221728;40;20046;-86
2021/07/16 00:07:19;;;;;;;6.45;3.10;;;;;;;17.53;84.54;99841.06;2221903;40;20317;-85
2021/07/16 00:08:51;;;;;;;5.05;3.08;;;;;;;17.49;84.69;99839.78;2221946;40;20118;-87
2021/07/16 00:10:24;;;;;;;7.15;3.63;;;;;;;17.46;85.00;99834.78;2221995;40;20058;-85
2021/07/16 00:11:56;;;;;;;5.80;2.83;;;;;;;17.43;85.08;99833.28;2221903;40;20022;-84
2021/07/16 00:13:28;;;;;;;8.60;3.10;;;;;;;17.42;85.44;99830.78;2226192;40;20037;-82
2021/07/16 00:15:00;;;;;;;16.58;4.15;;;;;;;17.39;85.60;99832.03;2227942;40;20029;-84
2021/07/16 00:16:32;;;;;;;6.07;3.00;;;;;;;17.39;85.51;99831.16;2227863;40;20041;-83
2021/07/16 00:18:05;;;;;;;10.65;4.95;;;;;;;17.39;85.42;99831.16;2227833;40;20029;-83
2021/07/16 00:19:37;;;;;;;10.02;5.55;;;;;;;17.37;85.68;99835.97;2227830;40;20025;-81
2021/07/16 00:21:09;;;;;;;8.63;4.70;;;;;;;17.33;86.13;99829.25;2227745;40;20040;-82
2021/07/16 00:22:41;;;;;;;7.60;4.20;;;;;;;17.35;86.32;99836.13;2228137;40;20029;-80
2021/07/16 00:24:12;;;;;;;7.70;3.92;;;;;;;17.40;86.54;99838.25;2228227;40;20033;-81
2021/07/16 00:25:44;;;;;;;7.65;4.60;;;;;;;17.46;86.10;99838.31;2222292;40;20596;-81
2021/07/16 00:27:17;;;;;;;6.30;3.75;;;;;;;17.49;86.29;99839.78;2222249;40;20622;-81
2021/07/16 00:28:48;;;;;;;8.80;3.75;;;;;;;17.50;86.00;99827.94;2222560;40;20038;-82
2021/07/16 00:30:20;;;;;;;9.10;3.95;;;;;;;17.49;86.21;99831.69;2222509;40;20042;-82
2021/07/16 00:31:51;;;;;;;7.75;5.30;;;;;;;17.45;85.98;99830.41;2222379;40;20033;-81
2021/07/16 00:33:23;;;;;;;11.68;6.35;;;;;;;17.43;85.97;99843.28;2222512;40;20033;-82
2021/07/16 00:34:56;;;;;;;12.45;8.13;;;;;;;17.42;86.21;99836.19;2222652;40;20022;-80
2021/07/16 00:36:28;;;;;;;7.50;5.40;;;;;;;17.36;86.36;99842.38;2222530;40;20051;-80
2021/07/16 00:38:00;;;;;;;10.25;6.85;;;;;;;17.31;86.23;99838.38;2222469;40;20053;-82
2021/07/16 00:39:32;;;;;;;6.95;5.03;;;;;;;17.30;86.67;99847.53;2222441;40;20030;-80
2021/07/16 00:41:04;;;;;;;7.68;5.25;;;;;;;17.31;86.46;99842.97;2222432;40;20053;-83
2021/07/16 00:42:36;;;;;;;28.70;8.27;;;;;;;17.32;86.62;99852.75;2222389;40;20628;-83
2021/07/16 00:44:07;;;;;;;10.63;5.30;;;;;;;17.29;86.86;99847.72;2222338;40;20025;-82
2021/07/16 00:45:39;;;;;;;7.68;5.45;;;;;;;17.33;86.62;99848.16;2222382;40;20037;-82
2021/07/16 00:47:11;;;;;;;8.15;4.80;;;;;;;17.39;86.82;99845.53;2222214;40;20032;-82
2021/07/16 00:48:41;;;;;;;8.65;4.80;;;;;;;17.45;86.74;99854.72;2222418;40;20041;-81
2021/07/16 00:50:19;;;;;;;9.85;5.03;;;;;;;17.50;86.64;99854.97;2222303;40;20531;-82
2021/07/16 00:51:50;;;;;;;7.57;6.15;;;;;;;17.52;86.52;99847.50;2222856;40;20049;-83
2021/07/16 00:53:22;;;;;;;19.45;9.38;;;;;;;17.52;86.38;99847.50;2222361;40;20096;-81
2021/07/16 00:54:54;;;;;;;13.57;9.00;;;;;;;17.49;86.13;99864.09;2222449;40;20041;-82
2021/07/16 00:56:25;;;;;;;9.02;7.40;;;;;;;17.47;86.35;99855.38;2221971;40;20026;-83
2021/07/16 00:57:58;;;;;;;8.05;5.70;;;;;;;17.49;86.29;99852.47;2222319;40;20054;-84
2021/07/16 00:59:30;;;;;;;9.00;5.05;;;;;;;17.52;86.37;99846.69;2222304;40;20033;-83
2021/07/16 01:01:02;;;;;;;12.70;6.00;;;;;;;17.49;86.18;99850.59;2222316;40;20030;-83
2021/07/16 01:02:33;;;;;;;15.75;7.85;;;;;;;17.41;86.10;99845.31;2222283;40;20030;-83
2021/07/16 01:04:05;;;;;;;7.72;5.88;;;;;;;17.33;86.84;99846.31;2222549;40;20029;-87
2021/07/16 01:05:39;;;;;;;19.55;7.75;;;;;;;17.25;86.78;99849.97;2222411;40;20048;-87
2021/07/16 01:07:10;;;;;;;12.70;6.30;;;;;;;17.22;87.04;99850.34;2215797;40;20422;-86
2021/07/16 01:08:42;;;;;;;5.75;4.47;;;;;;;17.27;87.16;99850.63;2216059;40;20029;-87
2021/07/16 01:33:28;;;;;;;22.30;6.55;;;;;;;16.71;88.51;99864.75;2243664;39;20109;-83
2021/07/16 01:35:00;;;;;;;48.25;8.63;;;;;;;16.67;88.32;99869.69;2244735;39;20035;-86
2021/07/16 01:36:32;;;;;;;29.55;8.15;;;;;;;16.64;88.40;99871.94;2233833;40;20346;-86
2021/07/16 01:38:05;;;;;;;23.38;6.22;;;;;;;16.64;88.74;99866.53;2234846;40;20032;-86
2021/07/16 01:39:35;;;;;;;30.95;9.10;;;;;;;16.62;88.71;99865.88;2246773;39;20020;-87
2021/07/16 01:41:07;;;;;;;19.58;5.93;;;;;;;16.61;88.82;99867.75;2247930;39;20040;-85
2021/07/16 01:42:40;;;;;;;19.40;8.52;;;;;;;16.59;89.04;99868.94;2247886;39;20577;-87
2021/07/16 02:00:41;;;;;;;5.80;3.50;;;;;;;16.64;90.02;99858.44;2246183;39;20038;-85
2021/07/16 02:02:12;;;;;;;5.70;4.03;;;;;;;16.67;89.68;99850.78;2247788;39;20024;-84
2021/07/16 02:03:46;;;;;;;7.25;4.60;;;;;;;16.76;89.61;99848.84;2241044;39;20032;-83
2021/07/16 02:05:19;;;;;;;7.57;4.82;;;;;;;16.82;89.26;99853.47;2241292;39;20028;-85
2021/07/16 02:06:50;;;;;;;12.20;6.43;;;;;;;16.84;89.03;99859.50;2241228;39;20085;-85
2021/07/16 02:08:25;;;;;;;20.10;6.80;;;;;;;16.84;88.85;99859.50;2241415;39;20024;-83
2021/07/16 02:09:55;;;;;;;9.52;6.20;;;;;;;16.83;88.71;99859.69;2241275;39;20082;-85
2021/07/16 02:11:29;;;;;;;32.15;7.57;;;;;;;16.80;88.40;99860.09;2240279;39;20344;-83
2021/07/16 02:13:00;;;;;;;6.80;4.75;;;;;;;16.78;88.53;99862.94;2239572;39;20043;-85
2021/07/16 02:14:32;;;;;;;7.65;5.32;;;;;;;16.83;88.37;99848.88;2241085;39;20060;-84
2021/07/16 02:16:06;;;;;;;19.40;7.15;;;;;;;16.87;88.45;99855.59;2240888;39;20405;-84
2021/07/16 02:17:37;;;;;;;25.67;8.65;;;;;;;16.85;88.23;99860.34;2240758;39;20020;-82
2021/07/16 02:19:09;;;;;;;8.10;5.18;;;;;;;16.82;88.27;99858.00;2233919;40;20033;-84
2021/07/16 02:20:42;;;;;;;9.70;5.40;;;;;;;16.86;88.48;99870.09;2234626;40;20020;-86
2021/07/16 02:22:14;;;;;;;7.75;4.40;;;;;;;16.89;88.54;99875.13;2234231;40;20053;-83
2021/07/16 02:23:47;;;;;;;8.65;6.10;;;;;;;16.95;88.37;99863.59;2234320;40;20044;-84
2021/07/16 02:25:19;;;;;;;7.20;4.57;;;;;;;16.89;87.94;99863.47;2234437;40;20027;-85
2021/07/16 02:26:50;;;;;;;7.97;6.05;;;;;;;16.84;88.11;99867.59;2235197;40;20023;-84
2021/07/16 03:28:24;;;;;;;9.25;5.18;;;;;;;16.34;87.51;99894.34;1744798;23;20180;-82
2021/07/16 03:49:10;;;;;;;6.15;3.53;;;;;;;16.45;88.06;99892.22;2183807;40;20028;-86
2021/07/16 03:50:47;;;;;;;5.55;4.45;;;;;;;16.48;87.84;99889.97;2185727;40;20109;-85
2021/07/16 03:57:18;;;;;;;6.50;3.97;;;;;;;16.56;87.94;99910.63;2214933;40;20022;-84
2021/07/16 03:58:50;;;;;;;21.55;5.43;;;;;;;16.56;87.66;99902.53;2210794;40;20092;-83
2021/07/16 04:00:28;;;;;;;10.57;4.82;;;;;;;16.53;87.72;99913.72;2210837;40;20572;-85
2021/07/16 04:01:59;;;;;;;6.35;3.70;;;;;;;16.54;87.97;99904.59;2207162;40;20022;-85
2021/07/16 04:03:31;;;;;;;10.23;4.82;;;;;;;16.54;87.82;99904.59;2206637;40;20411;-85
2021/07/16 04:05:04;;;;;;;9.90;6.20;;;;;;;16.56;87.76;99907.13;2204821;40;20035;-87
2021/07/16 04:06:36;;;;;;;8.48;4.70;;;;;;;16.51;87.42;99905.81;2204941;40;20034;-84
2021/07/16 04:08:07;;;;;;;7.53;4.07;;;;;;;16.56;87.83;99902.53;2204685;40;20510;-85
2021/07/16 04:09:39;;;;;;;32.40;7.43;;;;;;;16.57;87.46;99906.91;2204895;40;20034;-85
2021/07/16 04:11:17;;;;;;;10.25;5.03;;;;;;;16.59;87.47;99894.09;2204505;40;20046;-86
2021/07/16 04:12:52;;;;;;;5.97;4.18;;;;;;;16.61;87.57;99900.13;2204761;40;20038;-84
2021/07/16 04:14:24;;;;;;;10.85;4.47;;;;;;;16.64;87.73;99897.03;2204739;40;20027;-87
2021/07/16 04:15:56;;;;;;;13.25;6.43;;;;;;;16.68;87.41;99894.78;2198650;40;20411;-84
2021/07/16 04:17:29;;;;;;;10.07;4.88;;;;;;;16.67;87.47;99887.75;2198511;40;20023;-83
2021/07/16 04:19:00;;;;;;;42.58;7.30;;;;;;;16.65;87.25;99898.72;2236178;23;20049;-79
2021/07/16 04:20:35;;;;;;;16.90;7.53;;;;;;;16.64;87.49;99898.91;2209114;40;20052;-79
2021/07/16 04:22:07;;;;;;;20.05;5.95;;;;;;;16.62;87.24;99903.66;2208123;40;20412;-79
2021/07/16 04:23:39;;;;;;;30.58;8.38;;;;;;;16.61;87.53;99900.13;2204846;40;20049;-79
2021/07/16 04:25:14;;;;;;;10.75;4.97;;;;;;;16.55;87.64;99900.88;2206512;40;20074;-78
2021/07/16 04:26:45;;;;;;;22.77;6.65;;;;;;;16.56;87.78;99901.72;2209066;40;20026;-79
2021/07/16 04:28:17;;;;;;;85.70;10.90;;;;;;;16.55;87.73;99900.03;2205330;40;20034;-79
2021/07/16 04:29:48;;;;;;;48.28;9.05;;;;;;;16.48;87.59;99905.34;2203099;40;20046;-79
2021/07/16 04:31:20;;;;;;;26.90;8.75;;;;;;;16.47;87.74;99909.06;2202185;40;20046;-77
2021/07/16 04:32:53;;;;;;;20.40;8.57;;;;;;;16.48;87.61;99906.16;2202829;40;20034;-80
2021/07/16 04:34:24;;;;;;;11.05;7.05;;;;;;;16.52;87.56;99917.44;2202967;40;20060;-79
2021/07/16 04:35:58;;;;;;;8.75;6.82;;;;;;;16.60;87.83;99920.03;2202756;40;20050;-80
2021/07/16 04:37:28;;;;;;;10.88;5.28;;;;;;;16.64;87.53;99924.03;2202991;40;20042;-78
2021/07/16 04:39:00;;;;;;;9.52;6.05;;;;;;;16.68;87.47;99924.47;2202999;40;20046;-79
2021/07/16 04:40:34;;;;;;;8.90;5.60;;;;;;;16.71;87.53;99923.28;2203490;40;20042;-79
2021/07/16 04:42:06;;;;;;;11.35;7.25;;;;;;;16.74;87.26;99939.09;2203877;40;20045;-78
2021/07/16 04:43:38;;;;;;;12.48;7.75;;;;;;;16.76;87.44;99935.19;2203595;40;20038;-77
2021/07/16 04:45:12;;;;;;;13.10;8.38;;;;;;;16.76;87.12;99931.66;2203099;40;20445;-80
2021/07/16 04:46:43;;;;;;;9.18;6.35;;;;;;;16.76;87.16;99934.34;2202780;40;20461;-79
2021/07/16 04:48:15;;;;;;;26.98;8.65;;;;;;;16.78;86.99;99932.31;2202390;40;20038;-79
2021/07/16 04:49:47;;;;;;;19.10;6.20;;;;;;;16.70;87.38;99930.53;2202927;40;20045;-77
2021/07/16 04:51:26;;;;;;;10.65;7.97;;;;;;;16.66;87.23;99934.66;2202538;40;20041;-79
2021/07/16 04:52:58;;;;;;;8.68;5.00;;;;;;;16.61;87.26;99931.66;2202777;40;20338;-79
2021/07/16 04:54:29;;;;;;;10.07;5.75;;;;;;;16.63;87.42;99930.44;2202970;40;20061;-79
2021/07/16 04:56:01;;;;;;;11.77;7.43;;;;;;;16.66;87.36;99931.94;2196736;40;20319;-79
2021/07/16 04:57:32;;;;;;;20.17;8.88;;;;;;;16.63;87.52;99935.84;2201859;40;20606;-77
2021/07/16 04:59:04;;;;;;;13.73;7.82;;;;;;;16.56;87.65;99929.53;2202751;40;20045;-79
2021/07/16 05:00:36;;;;;;;6.90;5.03;;;;;;;16.57;87.66;99928.50;2203131;40;20358;-79
2021/07/16 05:02:08;;;;;;;8.23;5.82;;;;;;;16.66;87.64;99937.34;2202481;40;20361;-79
2021/07/16 05:03:40;;;;;;;14.63;8.32;;;;;;;16.69;87.59;99940.50;2202845;40;20034;-79
2021/07/16 05:05:12;;;;;;;13.18;7.68;;;;;;;16.73;87.54;99940.13;2203585;40;20319;-79
2021/07/16 05:06:45;;;;;;;8.63;6.28;;;;;;;16.78;87.24;99949.31;2205433;40;20026;-77
2021/07/16 05:08:17;;;;;;;10.70;6.43;;;;;;;16.83;87.21;99941.53;2202687;40;20395;-78
2021/07/16 05:09:48;;;;;;;10.55;6.25;;;;;;;16.90;87.09;99951.56;2201875;40;20069;-78
2021/07/16 05:11:21;;;;;;;9.38;6.20;;;;;;;16.95;86.82;99950.00;2204294;40;20062;-78
2021/07/16 05:12:53;;;;;;;12.27;7.55;;;;;;;16.97;86.75;99952.50;2206436;40;20047;-78
2021/07/16 05:14:24;;;;;;;11.63;7.07;;;;;;;16.99;86.64;99940.50;2202728;40;20039;-78
2021/07/16 05:15:55;;;;;;;9.80;7.78;;;;;;;17.00;86.47;99936.75;2202085;40;20484;-77
2021/07/16 05:17:26;;;;;;;8.98;6.45;;;;;;;17.02;86.47;99949.22;2202137;40;20144;-78
2021/07/16 05:18:58;;;;;;;11.82;8.68;;;;;;;17.06;86.34;99942.44;2201323;40;20326;-78
2021/07/16 05:20:30;;;;;;;9.80;6.82;;;;;;;17.07;85.92;99947.63;2202443;40;20023;-78
2021/07/16 05:22:02;;;;;;;11.13;8.10;;;;;;;17.09;85.94;99951.00;2202497;40;20038;-78
2021/07/16 05:23:34;;;;;;;13.90;9.68;;;;;;;17.10;85.72;99947.25;2202951;40;20054;-78
2021/07/16 05:25:08;;;;;;;13.38;9.38;;;;;;;17.13;85.80;99948.75;2208647;40;20041;-78
2021/07/16 05:26:40;;;;;;;17.60;11.80;;;;;;;17.12;85.83;99955.16;2202851;40;20109;-78
2021/07/16 05:28:11;;;;;;;15.05;10.60;;;;;;;17.09;85.77;99959.09;2202390;40;20076;-78
2021/07/16 05:29:42;;;;;;;15.30;9.82;;;;;;;17.10;85.73;99966.16;2202737;40;20058;-78
2021/07/16 05:31:14;;;;;;;12.82;9.25;;;;;;;17.13;85.64;99956.84;2197260;40;20046;-77
2021/07/16 05:32:45;;;;;;;17.23;9.82;;;;;;;17.15;85.49;99961.03;2200315;40;20041;-78
2021/07/16 05:34:17;;;;;;;16.00;11.10;;;;;;;17.14;85.04;99963.91;2202375;40;20087;-78
2021/07/16 05:35:49;;;;;;;18.05;10.18;;;;;;;17.11;84.97;99953.50;2202442;40;20388;-78
2021/07/16 05:37:22;;;;;;;13.48;8.65;;;;;;;17.09;85.09;99958.28;2202056;40;20026;-77
2021/07/16 05:38:54;;;;;;;17.30;11.25;;;;;;;17.07;85.24;99960.31;2201789;40;20057;-78
2021/07/16 05:40:26;;;;;;;13.68;10.27;;;;;;;17.04;85.23;99960.69;2203287;40;20062;-78
2021/07/16 05:41:58;;;;;;;13.85;9.25;;;;;;;17.03;85.44;99953.59;2206697;40;20046;-78
2021/07/16 05:43:29;;;;;;;11.98;8.23;;;;;;;17.05;85.35;99962.34;2202451;40;20042;-78
2021/07/16 05:45:00;;;;;;;13.68;9.82;;;;;;;17.07;85.22;99957.63;2202598;40;20065;-78
2021/07/16 05:46:32;;;;;;;16.83;12.75;;;;;;;17.05;85.43;99962.34;2201399;40;20046;-78
2021/07/16 05:48:04;;;;;;;14.93;9.35;;;;;;;17.02;85.21;99960.03;2201979;40;20039;-78
2021/07/16 05:49:35;;;;;;;12.48;9.23;;;;;;;17.05;85.08;99955.06;2202782;40;20411;-77
2021/07/16 05:51:07;;;;;;;17.17;11.07;;;;;;;17.14;84.77;99970.16;2202262;40;20030;-78
2021/07/16 05:52:40;;;;;;;14.23;10.25;;;;;;;17.17;84.79;99963.56;2201688;40;20031;-78
2021/07/16 05:54:12;;;;;;;18.92;13.52;;;;;;;17.19;84.61;99966.91;2202218;40;20350;-78
2021/07/16 05:55:43;;;;;;;15.00;9.63;;;;;;;17.18;84.67;99964.38;2202975;40;20042;-78
2021/07/16 05:57:15;;;;;;;11.73;9.38;;;;;;;17.19;84.58;99966.91;2202566;40;20402;-79
2021/07/16 05:58:47;;;;;;;16.70;12.38;;;;;;;17.23;84.36;99968.19;2201868;40;20054;-79
2021/07/16 06:00:19;;;;;;;13.85;10.05;;;;;;;17.21;84.20;99964.00;2201790;40;20508;-79
2021/07/16 06:01:51;;;;;;;16.67;10.45;;;;;;;17.21;84.56;99964.00;2202097;40;20031;-77
2021/07/16 06:03:23;;;;;;;14.02;9.50;;;;;;;17.22;84.37;99961.09;2203900;40;20070;-79
2021/07/16 06:04:54;;;;;;;14.05;10.40;;;;;;;17.26;84.20;99962.41;2204972;40;20159;-77
2021/07/16 06:06:25;;;;;;;16.08;12.27;;;;;;;17.19;84.61;99969.59;2202287;40;20034;-77
2021/07/16 06:07:59;;;;;;;17.20;12.75;;;;;;;17.18;84.64;99961.69;2201697;40;20030;-78
2021/07/16 06:09:30;;;;;;;16.70;12.80;;;;;;;17.15;84.57;99963.72;2201818;40;20066;-78
2021/07/16 06:11:02;;;;;;;16.85;11.65;;;;;;;17.11;84.55;99965.16;2202384;40;20062;-77
2021/07/16 06:12:34;;;;;;;18.20;11.25;;;;;;;17.18;84.63;99967.06;2202215;40;20142;-77
2021/07/16 06:14:06;;;;;;;14.18;8.40;;;;;;;17.25;84.43;99973.38;2202878;40;20034;-78
2021/07/16 06:15:38;;;;;;;12.18;9.60;;;;;;;17.29;84.32;99967.41;2203353;40;20057;-78
2021/07/16 06:17:09;;;;;;;9.77;7.32;;;;;;;17.36;83.70;99977.47;2202537;40;20049;-77
2021/07/16 06:18:41;;;;;;;11.57;7.72;;;;;;;17.38;83.69;99972.72;2201433;40;20078;-77
2021/07/16 06:20:14;;;;;;;11.85;8.60;;;;;;;17.45;83.35;99981.72;2201968;40;20043;-77
2021/07/16 06:21:46;;;;;;;13.02;9.85;;;;;;;17.56;83.24;99975.81;2201349;40;20065;-77
2021/07/16 06:23:20;;;;;;;13.82;8.82;;;;;;;17.58;83.15;99973.75;2208637;40;20038;-77
2021/07/16 06:24:51;;;;;;;11.93;9.07;;;;;;;17.67;83.13;99979.00;2202439;40;20519;-78
2021/07/16 06:26:23;;;;;;;13.15;10.48;;;;;;;17.73;82.84;99970.16;2203141;40;20594;-77
2021/07/16 06:27:55;;;;;;;12.68;10.02;;;;;;;17.74;82.54;99974.53;2202568;40;20093;-77
2021/07/16 06:29:26;;;;;;;11.98;9.63;;;;;;;17.80;82.39;99979.16;2197762;40;20046;-78
2021/07/16 06:30:57;;;;;;;13.68;11.63;;;;;;;17.85;82.08;99979.44;2200244;40;20145;-77
2021/07/16 06:32:28;;;;;;;17.73;12.52;;;;;;;17.84;82.02;99985.84;2202619;40;20034;-77
2021/07/16 06:34:00;;;;;;;11.95;9.82;;;;;;;17.84;82.18;99991.28;2202116;40;20094;-78
2021/07/16 06:35:32;;;;;;;13.15;9.02;;;;;;;17.91;82.40;99985.91;2201803;40;20045;-78
2021/07/16 06:37:03;;;;;;;12.52;9.48;;;;;;;17.98;81.94;99992.25;2202280;40;20054;-78
2021/07/16 06:38:37;;;;;;;16.25;11.75;;;;;;;18.02;81.49;99993.53;2202513;40;20046;-77
2021/07/16 06:40:10;;;;;;;15.20;9.80;;;;;;;18.03;81.22;99992.50;2201726;40;20054;-77
2021/07/16 06:41:42;;;;;;;16.95;10.55;;;;;;;18.08;81.36;99994.63;2203272;40;20030;-78
2021/07/16 06:43:13;;;;;;;11.70;8.73;;;;;;;18.13;81.30;99997.59;2207232;40;20034;-78
2021/07/16 06:44:44;;;;;;;12.35;9.57;;;;;;;18.15;81.09;99998.19;2205705;40;20038;-80
2021/07/16 06:46:17;;;;;;;12.13;9.93;;;;;;;18.19;80.52;100001.34;2210870;40;20037;-79
2021/07/16 06:47:49;;;;;;;15.63;12.02;;;;;;;18.14;80.64;100003.81;2205553;40;20031;-79
2021/07/16 06:49:26;;;;;;;14.88;11.00;;;;;;;18.11;80.63;100005.06;2202600;40;20054;-79
2021/07/16 06:50:58;;;;;;;15.90;11.85;;;;;;;18.14;80.64;100007.34;2202015;40;20057;-78
2021/07/16 06:52:29;;;;;;;15.20;11.13;;;;;;;18.18;80.24;100011.34;2196580;40;20049;-78
2021/07/16 06:54:03;;;;;;;15.30;10.80;;;;;;;18.18;80.31;100016.75;2203846;40;20041;-77
2021/07/16 06:55:35;;;;;;;14.18;10.60;;;;;;;18.18;80.38;100008.63;2203719;40;20045;-78
2021/07/16 06:57:06;;;;;;;14.18;10.18;;;;;;;18.24;80.49;100015.97;2202788;40;20144;-77
2021/07/16 06:58:38;;;;;;;11.75;9.70;;;;;;;18.27;80.22;100022.88;2202170;40;20120;-78
2021/07/16 07:00:11;;;;;;;14.43;10.80;;;;;;;18.31;79.78;100026.84;2203472;40;20034;-77
2021/07/16 07:01:42;;;;;;;14.00;11.32;;;;;;;18.35;79.39;100014.59;2202327;40;20045;-77
2021/07/16 07:03:14;;;;;;;15.20;11.38;;;;;;;18.39;79.26;100013.16;2202233;40;20034;-77
2021/07/16 07:04:46;;;;;;;20.45;12.02;;;;;;;18.38;79.30;100024.19;2202417;40;20089;-78
2021/07/16 07:06:17;;;;;;;19.33;12.45;;;;;;;18.34;79.06;100022.91;2202400;40;20037;-78
2021/07/16 07:07:49;;;;;;;19.73;11.55;;;;;;;18.32;79.36;100019.59;2202522;40;20066;-77
2021/07/16 07:09:22;;;;;;;19.55;12.77;;;;;;;18.30;79.01;100013.53;2202063;40;20038;-77
2021/07/16 07:10:54;;;;;;;19.08;13.23;;;;;;;18.19;79.30;100014.88;2201561;40;20638;-77
2021/07/16 07:12:26;;;;;;;16.70;12.48;;;;;;;18.09;79.57;100018.75;2201192;40;20057;-77
2021/07/16 07:13:56;;;;;;;19.15;11.40;;;;;;;18.13;79.47;100021.94;2201411;40;20037;-78
2021/07/16 07:15:28;;;;;;;14.45;11.20;;;;;;;18.21;79.31;100018.22;2203535;40;20057;-78
2021/07/16 07:17:00;;;;;;;14.15;11.65;;;;;;;18.32;79.34;100022.28;2203881;40;20035;-78
2021/07/16 07:18:32;;;;;;;15.68;11.05;;;;;;;18.39;78.73;100031.28;2202829;40;20097;-77
2021/07/16 07:20:05;;;;;;;10.90;9.43;;;;;;;18.49;78.58;100020.94;2203567;40;20061;-77
2021/07/16 07:21:37;;;;;;;12.63;9.23;;;;;;;18.62;78.13;100025.63;2194946;40;20042;-76
2021/07/16 07:23:08;;;;;;;12.05;9.38;;;;;;;18.71;77.73;100031.69;2199476;40;20062;-77
2021/07/16 07:24:42;;;;;;;11.85;9.10;;;;;;;18.76;77.46;100036.50;2201950;40;20140;-78
2021/07/16 07:26:14;;;;;;;13.05;10.95;;;;;;;18.76;77.20;100036.50;2200672;40;20546;-78
2021/07/16 07:27:45;;;;;;;12.90;9.38;;;;;;;18.71;77.37;100031.69;2196770;40;20035;-77
2021/07/16 07:29:17;;;;;;;13.98;9.68;;;;;;;18.76;77.67;100040.06;2201490;40;20034;-77
2021/07/16 07:30:49;;;;;;;11.80;9.23;;;;;;;18.83;77.20;100032.81;2201901;40;20050;-78
2021/07/16 07:32:20;;;;;;;11.82;10.32;;;;;;;18.92;76.85;100046.19;2200909;40;20034;-77
2021/07/16 07:33:51;;;;;;;13.95;10.48;;;;;;;18.95;76.62;100048.53;2201384;40;20050;-78
2021/07/16 07:35:23;;;;;;;9.90;8.90;;;;;;;18.95;76.60;100046.66;2201511;40;20331;-77
2021/07/16 07:36:55;;;;;;;11.75;10.55;;;;;;;18.99;76.35;100041.66;2202167;40;20034;-78
2021/07/16 07:38:27;;;;;;;10.27;9.18;;;;;;;18.98;76.24;100045.44;2201923;40;20326;-78
2021/07/16 07:40:00;;;;;;;11.45;8.15;;;;;;;19.01;76.01;100048.59;2201299;40;20030;-78
2021/07/16 07:41:31;;;;;;;11.35;8.88;;;;;;;19.02;75.81;100042.13;2203985;40;20044;-77
2021/07/16 07:43:06;;;;;;;10.25;8.80;;;;;;;19.02;75.75;100049.41;2202200;40;20064;-79
2021/07/16 07:44:37;;;;;;;11.18;9.80;;;;;;;19.01;75.52;100053.16;2201213;40;20046;-77
2021/07/16 07:46:09;;;;;;;10.88;9.65;;;;;;;18.99;75.63;100052.50;2201223;40;20042;-78
2021/07/16 07:47:41;;;;;;;12.73;10.75;;;;;;;18.94;75.27;100055.00;2198789;40;20065;-77
2021/07/16 07:49:13;;;;;;;10.98;9.50;;;;;;;18.89;75.88;100046.63;2202291;40;20042;-78
2021/07/16 07:50:46;;;;;;;13.98;12.45;;;;;;;18.99;75.77;100052.50;2202724;40;20057;-78
2021/07/16 07:52:18;;;;;;;9.68;8.68;;;;;;;19.02;76.02;100052.13;2203443;40;20022;-77
2021/07/16 07:53:49;;;;;;;9.23;6.82;;;;;;;19.05;75.79;100050.88;2201205;40;20050;-77
2021/07/16 07:55:24;;;;;;;9.60;7.45;;;;;;;19.16;75.41;100053.03;2202117;40;20050;-77
2021/07/16 07:56:55;;;;;;;10.90;7.85;;;;;;;19.15;75.33;100052.19;2202736;40;20159;-78
2021/07/16 07:58:26;;;;;;;8.20;6.95;;;;;;;19.22;75.25;100054.09;2202349;40;20058;-77
2021/07/16 07:59:58;;;;;;;9.18;7.88;;;;;;;19.33;74.95;100039.97;2202525;40;20058;-77
2021/07/16 08:01:29;;;;;;;7.78;6.28;;;;;;;19.36;75.03;100049.56;2201903;40;20062;-78
2021/07/16 08:03:02;;;;;;;10.38;6.90;;;;;;;19.46;74.45;100048.13;2202052;40;20077;-78
2021/07/16 08:04:35;;;;;;;8.75;7.53;;;;;;;19.53;74.19;100047.34;2203246;40;20038;-78
2021/07/16 08:06:07;;;;;;;8.50;6.32;;;;;;;19.49;74.13;100057.75;2207158;40;20169;-80
2021/07/16 08:07:39;;;;;;;9.02;6.78;;;;;;;19.41;74.42;100049.81;2205377;40;20076;-79
2021/07/16 08:09:10;;;;;;;7.55;6.10;;;;;;;19.46;74.33;100063.56;2200782;40;20057;-78
2021/07/16 08:10:43;;;;;;;7.95;6.63;;;;;;;19.54;74.32;100052.53;2201658;40;20026;-78
2021/07/16 08:12:15;;;;;;;7.47;5.47;;;;;;;19.60;74.22;100059.03;2202497;40;20046;-78
2021/07/16 08:13:49;;;;;;;6.82;5.68;;;;;;;19.65;73.84;100061.94;2203450;40;20132;-78
2021/07/16 08:15:20;;;;;;;10.50;6.25;;;;;;;19.66;73.45;100065.53;2205961;40;20059;-79
2021/07/16 08:16:52;;;;;;;6.63;5.43;;;;;;;19.64;73.96;100066.56;2208845;40;20041;-79
2021/07/16 08:18:23;;;;;;;8.40;6.78;;;;;;;19.63;73.69;100062.16;2205402;40;20735;-81
2021/07/16 08:19:56;;;;;;;8.40;6.97;;;;;;;19.54;73.74;100057.16;2205429;40;20046;-80
2021/07/16 08:21:28;;;;;;;9.07;7.13;;;;;;;19.49;73.94;100066.72;2204157;40;20038;-78
2021/07/16 08:23:00;;;;;;;8.25;6.15;;;;;;;19.53;73.72;100058.19;2201478;40;20043;-80
2021/07/16 08:24:32;;;;;;;7.47;6.28;;;;;;;19.73;73.51;100064.50;2204796;40;20051;-79
2021/07/16 08:26:05;;;;;;;7.20;5.78;;;;;;;20.09;72.49;100062.50;2205246;40;20042;-78
2021/07/16 08:27:38;;;;;;;6.30;5.35;;;;;;;20.34;71.64;100060.00;2205486;40;20090;-79
2021/07/16 08:29:10;;;;;;;6.55;5.43;;;;;;;20.47;70.81;100069.19;2204831;40;20073;-77
2021/07/16 08:30:44;;;;;;;7.78;5.78;;;;;;;20.42;70.80;100062.50;2202781;40;20034;-77
2021/07/16 08:32:16;;;;;;;7.15;5.90;;;;;;;20.20;70.76;100069.19;2201846;40;20053;-78
2021/07/16 08:33:48;;;;;;;7.95;6.82;;;;;;;19.93;71.72;100058.31;2200755;40;20580;-78
2021/07/16 08:35:20;;;;;;;7.70;5.85;;;;;;;19.91;72.11;100063.94;2195448;40;20374;-78
2021/07/16 08:36:51;;;;;;;9.43;5.40;;;;;;;19.96;71.73;100060.59;2201764;40;20042;-78
2021/07/16 08:38:23;;;;;;;7.35;5.75;;;;;;;20.12;71.31;100063.97;2203592;40;20050;-77
2021/07/16 08:39:57;;;;;;;8.15;5.30;;;;;;;20.18;70.99;100065.84;2204259;40;20046;-79
2021/07/16 08:41:31;;;;;;;7.13;5.53;;;;;;;20.41;70.54;100054.59;2208283;40;20058;-78
2021/07/16 08:43:06;;;;;;;7.95;5.45;;;;;;;20.72;69.52;100056.63;2203210;40;20476;-77
2021/07/16 08:44:38;;;;;;;8.57;5.25;;;;;;;21.12;68.28;100060.34;2204545;40;20031;-77
2021/07/16 08:46:10;;;;;;;7.10;5.40;;;;;;;21.32;67.52;100050.22;2205115;40;20068;-78
2021/07/16 08:47:43;;;;;;;6.50;5.20;;;;;;;21.28;66.72;100054.41;2206851;40;20035;-78
2021/07/16 08:49:16;;;;;;;6.53;5.38;;;;;;;21.16;67.41;100054.25;2203031;40;20034;-79
2021/07/16 08:50:57;;;;;;;6.53;5.30;;;;;;;21.09;67.79;100047.16;2208908;40;20109;-77
2021/07/16 08:52:30;;;;;;;7.40;5.80;;;;;;;21.15;67.15;100058.03;2208102;40;20069;-79
2021/07/16 08:54:10;;;;;;;9.35;6.18;;;;;;;21.22;66.70;100049.84;2210461;40;20045;-79
2021/07/16 08:55:42;;;;;;;7.13;5.03;;;;;;;20.95;67.33;100055.38;2203538;40;20089;-78
2021/07/16 08:57:18;;;;;;;7.53;4.90;;;;;;;21.25;66.99;100054.88;2200022;40;20081;-78
2021/07/16 08:58:50;;;;;;;6.32;4.85;;;;;;;21.74;65.46;100051.69;2205763;40;20103;-77
2021/07/16 09:00:25;;;;;;;6.78;4.93;;;;;;;22.01;64.61;100057.00;2203175;40;20038;-78
2021/07/16 09:01:57;;;;;;;5.80;4.35;;;;;;;22.18;64.22;100052.69;2202947;40;20034;-77
2021/07/16 09:03:29;;;;;;;7.05;4.78;;;;;;;22.49;63.16;100050.97;2205047;40;20030;-77
2021/07/16 09:05:07;;;;;;;5.40;4.35;;;;;;;22.77;62.03;100055.09;2203372;40;20051;-77
2021/07/16 09:06:47;;;;;;;7.95;4.60;;;;;;;22.75;61.75;100058.06;2201447;40;20090;-78
2021/07/16 09:08:20;;;;;;;7.53;4.95;;;;;;;22.77;60.94;100049.66;2196524;40;20066;-78
2021/07/16 09:09:51;;;;;;;5.88;4.20;;;;;;;22.50;60.88;100047.19;2202455;40;20043;-78
2021/07/16 09:11:23;;;;;;;6.00;3.47;;;;;;;22.17;61.90;100053.72;2202256;40;20059;-78
2021/07/16 09:13:00;;;;;;;5.75;4.05;;;;;;;22.35;61.82;100057.56;2202001;40;20057;-78
2021/07/16 09:14:33;;;;;;;5.72;3.90;;;;;;;22.73;60.87;100056.63;2208017;40;20049;-77
2021/07/16 09:16:05;;;;;;;5.20;3.78;;;;;;;23.00;60.22;100053.59;2201602;40;20373;-77